sensor_id;sensor_type;location;lat;lon;timestamp;P1;durP1;ratioP1;P2;durP2;ratioP2
46339;SDS011;47273;49.274;8.708;2022-07-24T04:00:59;18.75;;;15.68;;
46339;SDS011;47273;49.274;8.708;2022-07-24T04:03:25;18.65;;;15.60;;
46339;SDS011;47273;49.274;8.708;2022-07-24T04:05:50;16.48;;;14.77;;
46339;SDS011;47273;49.274;8.708;2022-07-24T04:08:16;19.70;;;15.32;;
46339;SDS011;47273;49.274;8.708;2022-07-24T04:10:42;17.20;;;15.35;;
46339;SDS011;47273;49.274;8.708;2022-07-24T04:13:07;17.58;;;15.65;;
46339;SDS011;47273;49.274;8.708;2022-07-24T04:15:33;19.27;;;15.93;;
46339;SDS011;47273;49.274;8.708;2022-07-24T04:17:59;19.00;;;16.00;;
46339;SDS011;47273;49.274;8.708;2022-07-24T04:20:24;17.83;;;15.93;;
46339;SDS011;47273;49.274;8.708;2022-07-24T04:22:50;19.35;;;16.33;;
46339;SDS011;47273;49.274;8.708;2022-07-24T04:25:16;21.42;;;16.58;;
46339;SDS011;47273;49.274;8.708;2022-07-24T04:27:42;18.00;;;16.10;;
46339;SDS011;47273;49.274;8.708;2022-07-24T04:30:08;18.45;;;14.88;;
46339;SDS011;47273;49.274;8.708;2022-07-24T04:32:35;21.50;;;15.75;;
46339;SDS011;47273;49.274;8.708;2022-07-24T04:35:01;17.30;;;15.57;;
46339;SDS011;47273;49.274;8.708;2022-07-24T04:37:28;17.70;;;15.57;;
46339;SDS011;47273;49.274;8.708;2022-07-24T04:39:54;18.40;;;16.48;;
46339;SDS011;47273;49.274;8.708;2022-07-24T04:42:19;19.15;;;17.08;;
46339;SDS011;47273;49.274;8.708;2022-07-24T04:44:45;18.25;;;16.27;;
46339;SDS011;47273;49.274;8.708;2022-07-24T04:47:11;19.77;;;17.67;;
46339;SDS011;47273;49.274;8.708;2022-07-24T04:49:36;19.92;;;17.13;;
46339;SDS011;47273;49.274;8.708;2022-07-24T04:52:02;18.60;;;16.58;;
46339;SDS011;47273;49.274;8.708;2022-07-24T04:54:28;18.83;;;16.13;;
46339;SDS011;47273;49.274;8.708;2022-07-24T04:56:54;20.67;;;16.80;;
46339;SDS011;47273;49.274;8.708;2022-07-24T04:59:19;19.20;;;17.20;;
46339;SDS011;47273;49.274;8.708;2022-07-24T05:01:45;21.33;;;16.60;;
46339;SDS011;47273;49.274;8.708;2022-07-24T05:04:11;23.27;;;17.15;;
46339;SDS011;47273;49.274;8.708;2022-07-24T05:06:36;18.65;;;16.55;;
46339;SDS011;47273;49.274;8.708;2022-07-24T05:09:02;19.88;;;17.83;;
46339;SDS011;47273;49.274;8.708;2022-07-24T05:11:28;18.73;;;16.70;;
46339;SDS011;47273;49.274;8.708;2022-07-24T05:13:54;18.40;;;16.60;;
46339;SDS011;47273;49.274;8.708;2022-07-24T05:16:19;20.52;;;16.77;;
46339;SDS011;47273;49.274;8.708;2022-07-24T05:18:45;19.13;;;16.35;;
46339;SDS011;47273;49.274;8.708;2022-07-24T05:21:10;19.27;;;17.38;;
46339;SDS011;47273;49.274;8.708;2022-07-24T05:23:36;20.83;;;17.15;;
46339;SDS011;47273;49.274;8.708;2022-07-24T05:26:02;19.55;;;17.45;;
46339;SDS011;47273;49.274;8.708;2022-07-24T05:28:27;19.10;;;17.10;;
46339;SDS011;47273;49.274;8.708;2022-07-24T05:30:53;19.15;;;16.65;;
46339;SDS011;47273;49.274;8.708;2022-07-24T05:33:19;20.02;;;17.85;;
46339;SDS011;47273;49.274;8.708;2022-07-24T05:35:44;21.50;;;18.35;;
46339;SDS011;47273;49.274;8.708;2022-07-24T05:38:10;20.85;;;17.65;;
46339;SDS011;47273;49.274;8.708;2022-07-24T05:40:36;20.70;;;17.33;;
46339;SDS011;47273;49.274;8.708;2022-07-24T05:43:01;20.38;;;18.30;;
46339;SDS011;47273;49.274;8.708;2022-07-24T05:45:27;21.40;;;17.20;;
46339;SDS011;47273;49.274;8.708;2022-07-24T05:47:53;19.00;;;16.98;;
46339;SDS011;47273;49.274;8.708;2022-07-24T05:50:18;18.55;;;16.75;;
46339;SDS011;47273;49.274;8.708;2022-07-24T05:52:44;20.27;;;17.13;;
46339;SDS011;47273;49.274;8.708;2022-07-24T05:55:10;19.77;;;17.67;;
46339;SDS011;47273;49.274;8.708;2022-07-24T05:57:35;19.13;;;17.17;;
46339;SDS011;47273;49.274;8.708;2022-07-24T06:00:02;19.00;;;17.08;;
46339;SDS011;47273;49.274;8.708;2022-07-24T06:02:28;17.75;;;15.95;;
46339;SDS011;47273;49.274;8.708;2022-07-24T06:04:54;19.73;;;16.80;;
46339;SDS011;47273;49.274;8.708;2022-07-24T06:07:20;18.38;;;16.67;;
46339;SDS011;47273;49.274;8.708;2022-07-24T06:09:45;18.75;;;16.80;;
46339;SDS011;47273;49.274;8.708;2022-07-24T06:12:13;19.83;;;17.73;;
46339;SDS011;47273;49.274;8.708;2022-07-24T06:14:38;18.45;;;16.73;;
46339;SDS011;47273;49.274;8.708;2022-07-24T06:17:04;18.55;;;16.52;;
46339;SDS011;47273;49.274;8.708;2022-07-24T06:19:29;19.40;;;17.05;;
46339;SDS011;47273;49.274;8.708;2022-07-24T06:21:55;17.83;;;15.95;;
46339;SDS011;47273;49.274;8.708;2022-07-24T06:24:21;18.00;;;16.38;;
46339;SDS011;47273;49.274;8.708;2022-07-24T06:26:46;17.90;;;16.10;;
46339;SDS011;47273;49.274;8.708;2022-07-24T06:29:12;18.35;;;16.65;;
46339;SDS011;47273;49.274;8.708;2022-07-24T06:31:37;17.98;;;16.27;;
46339;SDS011;47273;49.274;8.708;2022-07-24T06:34:03;17.88;;;15.98;;
46339;SDS011;47273;49.274;8.708;2022-07-24T06:36:29;18.00;;;16.23;;
46339;SDS011;47273;49.274;8.708;2022-07-24T06:38:54;17.83;;;15.93;;
46339;SDS011;47273;49.274;8.708;2022-07-24T06:41:20;18.00;;;16.25;;
46339;SDS011;47273;49.274;8.708;2022-07-24T06:43:46;17.95;;;16.08;;
46339;SDS011;47273;49.274;8.708;2022-07-24T06:46:11;17.73;;;15.93;;
46339;SDS011;47273;49.274;8.708;2022-07-24T06:48:37;16.98;;;15.48;;
46339;SDS011;47273;49.274;8.708;2022-07-24T06:51:03;17.58;;;15.95;;
46339;SDS011;47273;49.274;8.708;2022-07-24T06:53:29;18.02;;;16.15;;
46339;SDS011;47273;49.274;8.708;2022-07-24T06:55:55;18.55;;;16.80;;
46339;SDS011;47273;49.274;8.708;2022-07-24T06:58:21;18.13;;;16.17;;
46339;SDS011;47273;49.274;8.708;2022-07-24T07:00:47;18.23;;;16.35;;
46339;SDS011;47273;49.274;8.708;2022-07-24T07:03:14;18.58;;;15.43;;
46339;SDS011;47273;49.274;8.708;2022-07-24T07:05:40;17.67;;;15.98;;
46339;SDS011;47273;49.274;8.708;2022-07-24T07:08:05;21.85;;;16.27;;
46339;SDS011;47273;49.274;8.708;2022-07-24T07:10:31;18.20;;;15.93;;
46339;SDS011;47273;49.274;8.708;2022-07-24T07:12:57;19.20;;;16.90;;
46339;SDS011;47273;49.274;8.708;2022-07-24T07:15:22;18.17;;;16.48;;
46339;SDS011;47273;49.274;8.708;2022-07-24T07:17:48;18.17;;;16.38;;
46339;SDS011;47273;49.274;8.708;2022-07-24T07:20:14;19.27;;;17.30;;
46339;SDS011;47273;49.274;8.708;2022-07-24T07:22:40;17.00;;;15.35;;
46339;SDS011;47273;49.274;8.708;2022-07-24T07:25:07;17.88;;;16.08;;
46339;SDS011;47273;49.274;8.708;2022-07-24T07:27:34;17.70;;;16.08;;
46339;SDS011;47273;49.274;8.708;2022-07-24T07:30:00;19.08;;;17.17;;
46339;SDS011;47273;49.274;8.708;2022-07-24T07:32:27;18.05;;;16.45;;
46339;SDS011;47273;49.274;8.708;2022-07-24T07:34:53;18.63;;;16.92;;
46339;SDS011;47273;49.274;8.708;2022-07-24T07:37:18;18.92;;;17.02;;
46339;SDS011;47273;49.274;8.708;2022-07-24T07:39:44;18.45;;;16.65;;
46339;SDS011;47273;49.274;8.708;2022-07-24T07:42:10;19.58;;;17.70;;
46339;SDS011;47273;49.274;8.708;2022-07-24T07:44:36;18.48;;;16.70;;
46339;SDS011;47273;49.274;8.708;2022-07-24T07:47:01;18.58;;;16.60;;
46339;SDS011;47273;49.274;8.708;2022-07-24T07:49:34;18.95;;;17.15;;
46339;SDS011;47273;49.274;8.708;2022-07-24T07:52:02;19.70;;;17.67;;
46339;SDS011;47273;49.274;8.708;2022-07-24T07:54:31;18.92;;;17.02;;
46339;SDS011;47273;49.274;8.708;2022-07-24T07:56:57;20.95;;;16.98;;
46339;SDS011;47273;49.274;8.708;2022-07-24T07:59:23;21.05;;;17.80;;
46339;SDS011;47273;49.274;8.708;2022-07-24T08:01:49;18.10;;;16.30;;
46339;SDS011;47273;49.274;8.708;2022-07-24T08:04:17;18.98;;;17.10;;
46339;SDS011;47273;49.274;8.708;2022-07-24T08:06:43;19.55;;;16.45;;
46339;SDS011;47273;49.274;8.708;2022-07-24T08:09:09;18.63;;;16.92;;
46339;SDS011;47273;49.274;8.708;2022-07-24T08:12:32;18.88;;;17.17;;
46339;SDS011;47273;49.274;8.708;2022-07-24T08:14:58;19.45;;;17.45;;
46339;SDS011;47273;49.274;8.708;2022-07-24T08:17:23;19.45;;;17.42;;
46339;SDS011;47273;49.274;8.708;2022-07-24T08:19:49;19.20;;;17.05;;
46339;SDS011;47273;49.274;8.708;2022-07-24T08:25:30;19.38;;;17.42;;
46339;SDS011;47273;49.274;8.708;2022-07-24T08:27:56;20.10;;;18.17;;
46339;SDS011;47273;49.274;8.708;2022-07-24T08:30:21;19.38;;;17.42;;
46339;SDS011;47273;49.274;8.708;2022-07-24T08:32:48;19.75;;;17.70;;
46339;SDS011;47273;49.274;8.708;2022-07-24T08:35:14;19.73;;;17.88;;
46339;SDS011;47273;49.274;8.708;2022-07-24T08:37:41;19.42;;;17.58;;
46339;SDS011;47273;49.274;8.708;2022-07-24T08:40:09;20.23;;;17.52;;
46339;SDS011;47273;49.274;8.708;2022-07-24T08:42:36;19.33;;;17.42;;
46339;SDS011;47273;49.274;8.708;2022-07-24T08:45:05;19.77;;;17.77;;
46339;SDS011;47273;49.274;8.708;2022-07-24T08:47:39;19.77;;;17.70;;
46339;SDS011;47273;49.274;8.708;2022-07-24T08:50:06;19.10;;;17.30;;
46339;SDS011;47273;49.274;8.708;2022-07-24T08:52:45;20.33;;;18.17;;
46339;SDS011;47273;49.274;8.708;2022-07-24T08:55:11;23.40;;;18.55;;
46339;SDS011;47273;49.274;8.708;2022-07-24T08:57:39;20.77;;;18.85;;
46339;SDS011;47273;49.274;8.708;2022-07-24T09:00:06;20.00;;;17.95;;
46339;SDS011;47273;49.274;8.708;2022-07-24T09:02:33;19.92;;;17.92;;
46339;SDS011;47273;49.274;8.708;2022-07-24T09:05:01;20.25;;;18.30;;
46339;SDS011;47273;49.274;8.708;2022-07-24T09:08:05;19.77;;;17.80;;
46339;SDS011;47273;49.274;8.708;2022-07-24T09:10:36;19.80;;;17.88;;
46339;SDS011;47273;49.274;8.708;2022-07-24T09:13:13;19.27;;;17.38;;
46339;SDS011;47273;49.274;8.708;2022-07-24T09:15:47;19.85;;;17.85;;
46339;SDS011;47273;49.274;8.708;2022-07-24T09:18:31;20.90;;;17.10;;
46339;SDS011;47273;49.274;8.708;2022-07-24T09:21:14;20.85;;;18.75;;
46339;SDS011;47273;49.274;8.708;2022-07-24T09:23:42;29.02;;;18.15;;
46339;SDS011;47273;49.274;8.708;2022-07-24T09:26:09;19.50;;;17.58;;
46339;SDS011;47273;49.274;8.708;2022-07-24T09:28:51;19.10;;;17.35;;
46339;SDS011;47273;49.274;8.708;2022-07-24T09:31:19;19.45;;;17.52;;
46339;SDS011;47273;49.274;8.708;2022-07-24T09:33:51;22.55;;;18.42;;
46339;SDS011;47273;49.274;8.708;2022-07-24T09:36:17;19.75;;;17.67;;
46339;SDS011;47273;49.274;8.708;2022-07-24T09:38:50;19.17;;;17.30;;
46339;SDS011;47273;49.274;8.708;2022-07-24T09:41:20;19.70;;;17.70;;
46339;SDS011;47273;49.274;8.708;2022-07-24T09:43:58;19.45;;;17.55;;
46339;SDS011;47273;49.274;8.708;2022-07-24T09:46:25;19.92;;;16.90;;
46339;SDS011;47273;49.274;8.708;2022-07-24T09:54:48;19.90;;;17.80;;
46339;SDS011;47273;49.274;8.708;2022-07-24T10:02:14;19.20;;;17.38;;
46339;SDS011;47273;49.274;8.708;2022-07-24T10:04:42;19.17;;;17.25;;
46339;SDS011;47273;49.274;8.708;2022-07-24T10:07:11;18.48;;;16.60;;
46339;SDS011;47273;49.274;8.708;2022-07-24T10:09:40;18.50;;;16.48;;
46339;SDS011;47273;49.274;8.708;2022-07-24T10:12:21;19.60;;;17.70;;
46339;SDS011;47273;49.274;8.708;2022-07-24T10:14:52;18.20;;;16.50;;
46339;SDS011;47273;49.274;8.708;2022-07-24T10:17:19;19.63;;;15.20;;
46339;SDS011;47273;49.274;8.708;2022-07-24T10:19:48;17.63;;;15.82;;
46339;SDS011;47273;49.274;8.708;2022-07-24T10:22:33;18.75;;;16.85;;
46339;SDS011;47273;49.274;8.708;2022-07-24T10:25:16;18.40;;;16.50;;
46339;SDS011;47273;49.274;8.708;2022-07-24T10:27:44;18.15;;;16.23;;
46339;SDS011;47273;49.274;8.708;2022-07-24T10:30:17;18.65;;;16.75;;
46339;SDS011;47273;49.274;8.708;2022-07-24T10:32:43;19.08;;;17.10;;
46339;SDS011;47273;49.274;8.708;2022-07-24T10:35:21;23.08;;;16.88;;
46339;SDS011;47273;49.274;8.708;2022-07-24T10:38:04;19.15;;;17.08;;
46339;SDS011;47273;49.274;8.708;2022-07-24T10:40:49;18.23;;;16.63;;
46339;SDS011;47273;49.274;8.708;2022-07-24T10:43:19;21.77;;;17.85;;
46339;SDS011;47273;49.274;8.708;2022-07-24T10:53:48;19.65;;;17.83;;
46339;SDS011;47273;49.274;8.708;2022-07-24T10:58:57;19.33;;;17.40;;
46339;SDS011;47273;49.274;8.708;2022-07-24T11:06:46;19.10;;;17.33;;
46339;SDS011;47273;49.274;8.708;2022-07-24T11:09:14;18.75;;;16.70;;
46339;SDS011;47273;49.274;8.708;2022-07-24T11:31:48;17.48;;;15.98;;
46339;SDS011;47273;49.274;8.708;2022-07-24T11:34:26;16.73;;;15.23;;
46339;SDS011;47273;49.274;8.708;2022-07-24T11:37:08;17.17;;;15.68;;
46339;SDS011;47273;49.274;8.708;2022-07-24T11:39:35;17.50;;;15.85;;
46339;SDS011;47273;49.274;8.708;2022-07-24T11:42:04;17.90;;;16.40;;
46339;SDS011;47273;49.274;8.708;2022-07-24T11:45:09;18.02;;;16.27;;
46339;SDS011;47273;49.274;8.708;2022-07-24T11:48:19;16.70;;;15.27;;
46339;SDS011;47273;49.274;8.708;2022-07-24T11:54:21;17.27;;;15.68;;
46339;SDS011;47273;49.274;8.708;2022-07-24T11:57:18;17.23;;;15.77;;
46339;SDS011;47273;49.274;8.708;2022-07-24T11:59:48;17.23;;;15.60;;
46339;SDS011;47273;49.274;8.708;2022-07-24T12:02:23;17.08;;;15.63;;
46339;SDS011;47273;49.274;8.708;2022-07-24T12:14:52;17.27;;;15.77;;
46339;SDS011;47273;49.274;8.708;2022-07-24T12:18:23;16.73;;;15.40;;
46339;SDS011;47273;49.274;8.708;2022-07-24T12:21:18;17.00;;;15.70;;
46339;SDS011;47273;49.274;8.708;2022-07-24T12:24:49;16.50;;;15.15;;
46339;SDS011;47273;49.274;8.708;2022-07-24T12:35:13;16.95;;;15.40;;
46339;SDS011;47273;49.274;8.708;2022-07-24T12:45:33;16.27;;;14.98;;
46339;SDS011;47273;49.274;8.708;2022-07-24T12:49:02;15.82;;;14.52;;
46339;SDS011;47273;49.274;8.708;2022-07-24T12:52:49;16.17;;;14.85;;
46339;SDS011;47273;49.274;8.708;2022-07-24T13:09:40;15.98;;;14.68;;
46339;SDS011;47273;49.274;8.708;2022-07-24T13:12:13;16.95;;;15.50;;
46339;SDS011;47273;49.274;8.708;2022-07-24T13:15:51;17.25;;;15.80;;
46339;SDS011;47273;49.274;8.708;2022-07-24T13:19:32;16.25;;;14.73;;
46339;SDS011;47273;49.274;8.708;2022-07-24T13:25:20;16.77;;;15.38;;
46339;SDS011;47273;49.274;8.708;2022-07-24T13:28:37;16.70;;;15.30;;
46339;SDS011;47273;49.274;8.708;2022-07-24T13:35:08;16.77;;;15.48;;
46339;SDS011;47273;49.274;8.708;2022-07-24T13:37:38;16.33;;;14.93;;
46339;SDS011;47273;49.274;8.708;2022-07-24T13:40:04;16.73;;;15.35;;
46339;SDS011;47273;49.274;8.708;2022-07-24T13:42:32;16.83;;;15.50;;
46339;SDS011;47273;49.274;8.708;2022-07-24T13:45:00;17.73;;;15.98;;
46339;SDS011;47273;49.274;8.708;2022-07-24T13:47:26;16.27;;;15.02;;
46339;SDS011;47273;49.274;8.708;2022-07-24T13:49:52;16.55;;;14.90;;
46339;SDS011;47273;49.274;8.708;2022-07-24T13:52:18;17.02;;;15.57;;
46339;SDS011;47273;49.274;8.708;2022-07-24T13:54:43;15.48;;;14.23;;
46339;SDS011;47273;49.274;8.708;2022-07-24T13:57:09;16.90;;;15.27;;
46339;SDS011;47273;49.274;8.708;2022-07-24T13:59:37;15.60;;;14.40;;
46339;SDS011;47273;49.274;8.708;2022-07-24T14:02:02;15.80;;;14.50;;
46339;SDS011;47273;49.274;8.708;2022-07-24T14:04:28;15.60;;;14.20;;
46339;SDS011;47273;49.274;8.708;2022-07-24T14:06:54;15.77;;;14.38;;
46339;SDS011;47273;49.274;8.708;2022-07-24T14:09:20;14.90;;;13.68;;
46339;SDS011;47273;49.274;8.708;2022-07-24T14:11:46;15.35;;;13.98;;
46339;SDS011;47273;49.274;8.708;2022-07-24T14:14:14;15.27;;;13.55;;
46339;SDS011;47273;49.274;8.708;2022-07-24T14:16:40;15.50;;;13.90;;
46339;SDS011;47273;49.274;8.708;2022-07-24T14:19:06;14.75;;;13.65;;
46339;SDS011;47273;49.274;8.708;2022-07-24T14:21:31;15.75;;;14.25;;
46339;SDS011;47273;49.274;8.708;2022-07-24T14:23:58;15.45;;;14.10;;
46339;SDS011;47273;49.274;8.708;2022-07-24T14:26:24;15.35;;;14.13;;
46339;SDS011;47273;49.274;8.708;2022-07-24T14:28:50;14.70;;;13.50;;
46339;SDS011;47273;49.274;8.708;2022-07-24T14:31:18;15.23;;;14.02;;
46339;SDS011;47273;49.274;8.708;2022-07-24T14:33:44;15.40;;;14.18;;
46339;SDS011;47273;49.274;8.708;2022-07-24T14:36:10;15.98;;;14.50;;
46339;SDS011;47273;49.274;8.708;2022-07-24T14:38:38;16.63;;;14.73;;
46339;SDS011;47273;49.274;8.708;2022-07-24T14:41:04;15.88;;;14.57;;
46339;SDS011;47273;49.274;8.708;2022-07-24T14:43:30;15.98;;;14.68;;
46339;SDS011;47273;49.274;8.708;2022-07-24T14:45:58;16.67;;;15.38;;
46339;SDS011;47273;49.274;8.708;2022-07-24T14:48:24;15.55;;;14.35;;
46339;SDS011;47273;49.274;8.708;2022-07-24T14:50:50;15.75;;;14.10;;
46339;SDS011;47273;49.274;8.708;2022-07-24T14:53:15;15.88;;;14.57;;
46339;SDS011;47273;49.274;8.708;2022-07-24T14:55:41;15.80;;;14.50;;
46339;SDS011;47273;49.274;8.708;2022-07-24T14:58:07;15.23;;;14.02;;
46339;SDS011;47273;49.274;8.708;2022-07-24T15:00:34;15.05;;;13.85;;
46339;SDS011;47273;49.274;8.708;2022-07-24T15:02:59;15.95;;;14.65;;
46339;SDS011;47273;49.274;8.708;2022-07-24T15:05:28;16.23;;;14.70;;
46339;SDS011;47273;49.274;8.708;2022-07-24T15:07:54;15.82;;;14.63;;
46339;SDS011;47273;49.274;8.708;2022-07-24T15:10:20;16.15;;;14.40;;
46339;SDS011;47273;49.274;8.708;2022-07-24T15:12:54;16.15;;;14.70;;
46339;SDS011;47273;49.274;8.708;2022-07-24T15:15:20;15.90;;;14.60;;
46339;SDS011;47273;49.274;8.708;2022-07-24T15:17:46;15.25;;;14.05;;
46339;SDS011;47273;49.274;8.708;2022-07-24T15:20:11;14.95;;;13.85;;
46339;SDS011;47273;49.274;8.708;2022-07-24T15:22:37;14.85;;;13.65;;
46339;SDS011;47273;49.274;8.708;2022-07-24T15:25:03;14.68;;;13.52;;
46339;SDS011;47273;49.274;8.708;2022-07-24T15:27:29;15.32;;;14.02;;
46339;SDS011;47273;49.274;8.708;2022-07-24T15:29:55;14.77;;;13.55;;
46339;SDS011;47273;49.274;8.708;2022-07-24T15:32:20;14.15;;;13.00;;
46339;SDS011;47273;49.274;8.708;2022-07-24T15:34:46;14.98;;;13.73;;
46339;SDS011;47273;49.274;8.708;2022-07-24T15:37:11;14.55;;;13.45;;
46339;SDS011;47273;49.274;8.708;2022-07-24T15:39:37;16.35;;;14.85;;
46339;SDS011;47273;49.274;8.708;2022-07-24T15:42:03;15.65;;;14.32;;
46339;SDS011;47273;49.274;8.708;2022-07-24T15:44:28;15.68;;;14.48;;
46339;SDS011;47273;49.274;8.708;2022-07-24T15:46:54;15.45;;;14.15;;
46339;SDS011;47273;49.274;8.708;2022-07-24T15:49:20;15.25;;;14.02;;
46339;SDS011;47273;49.274;8.708;2022-07-24T15:51:46;15.15;;;13.85;;
46339;SDS011;47273;49.274;8.708;2022-07-24T15:54:11;14.75;;;13.55;;
46339;SDS011;47273;49.274;8.708;2022-07-24T15:56:39;14.10;;;12.90;;
46339;SDS011;47273;49.274;8.708;2022-07-24T15:59:05;14.40;;;13.02;;
46339;SDS011;47273;49.274;8.708;2022-07-24T16:01:31;14.70;;;13.38;;
46339;SDS011;47273;49.274;8.708;2022-07-24T16:03:57;15.07;;;13.77;;
46339;SDS011;47273;49.274;8.708;2022-07-24T16:06:23;14.68;;;13.30;;
46339;SDS011;47273;49.274;8.708;2022-07-24T16:08:48;14.27;;;13.07;;
46339;SDS011;47273;49.274;8.708;2022-07-24T16:11:17;14.85;;;13.55;;
46339;SDS011;47273;49.274;8.708;2022-07-24T16:13:43;15.48;;;14.07;;
46339;SDS011;47273;49.274;8.708;2022-07-24T16:16:08;15.60;;;14.20;;
46339;SDS011;47273;49.274;8.708;2022-07-24T16:18:38;15.80;;;14.30;;
46339;SDS011;47273;49.274;8.708;2022-07-24T16:21:04;14.32;;;13.15;;
46339;SDS011;47273;49.274;8.708;2022-07-24T16:23:30;14.77;;;13.38;;
46339;SDS011;47273;49.274;8.708;2022-07-24T16:25:58;15.00;;;13.80;;
46339;SDS011;47273;49.274;8.708;2022-07-24T16:28:24;14.88;;;13.55;;
46339;SDS011;47273;49.274;8.708;2022-07-24T16:30:50;14.70;;;13.48;;
46339;SDS011;47273;49.274;8.708;2022-07-24T16:33:15;14.88;;;13.20;;
46339;SDS011;47273;49.274;8.708;2022-07-24T16:35:41;14.90;;;13.60;;
46339;SDS011;47273;49.274;8.708;2022-07-24T16:38:07;15.07;;;13.63;;
46339;SDS011;47273;49.274;8.708;2022-07-24T16:40:32;15.68;;;13.82;;
46339;SDS011;47273;49.274;8.708;2022-07-24T16:42:58;14.80;;;13.50;;
46339;SDS011;47273;49.274;8.708;2022-07-24T16:45:24;14.13;;;12.93;;
46339;SDS011;47273;49.274;8.708;2022-07-24T16:47:49;15.70;;;14.30;;
46339;SDS011;47273;49.274;8.708;2022-07-24T16:50:15;14.52;;;13.23;;
46339;SDS011;47273;49.274;8.708;2022-07-24T16:52:41;15.00;;;13.65;;
46339;SDS011;47273;49.274;8.708;2022-07-24T16:55:07;15.30;;;13.70;;
46339;SDS011;47273;49.274;8.708;2022-07-24T16:57:33;14.95;;;13.65;;
46339;SDS011;47273;49.274;8.708;2022-07-24T16:59:58;14.00;;;12.68;;
46339;SDS011;47273;49.274;8.708;2022-07-24T17:02:24;14.48;;;13.05;;
46339;SDS011;47273;49.274;8.708;2022-07-24T17:04:50;14.73;;;13.40;;
46339;SDS011;47273;49.274;8.708;2022-07-24T17:07:15;14.50;;;13.20;;
46339;SDS011;47273;49.274;8.708;2022-07-24T17:09:41;14.00;;;12.75;;
46339;SDS011;47273;49.274;8.708;2022-07-24T17:12:09;16.95;;;13.95;;
46339;SDS011;47273;49.274;8.708;2022-07-24T17:14:36;47.42;;;43.55;;
46339;SDS011;47273;49.274;8.708;2022-07-24T17:17:11;59.78;;;48.90;;
46339;SDS011;47273;49.274;8.708;2022-07-24T17:19:37;24.00;;;21.80;;
46339;SDS011;47273;49.274;8.708;2022-07-24T17:25:00;38.03;;;34.40;;
46339;SDS011;47273;49.274;8.708;2022-07-24T17:27:26;37.72;;;31.10;;
46339;SDS011;47273;49.274;8.708;2022-07-24T17:29:52;17.33;;;15.82;;
46339;SDS011;47273;49.274;8.708;2022-07-24T17:32:19;15.77;;;14.45;;
46339;SDS011;47273;49.274;8.708;2022-07-24T17:34:45;15.57;;;14.18;;
46339;SDS011;47273;49.274;8.708;2022-07-24T17:37:11;16.88;;;15.38;;
46339;SDS011;47273;49.274;8.708;2022-07-24T17:39:36;15.85;;;14.38;;
46339;SDS011;47273;49.274;8.708;2022-07-24T17:42:02;15.85;;;14.50;;
46339;SDS011;47273;49.274;8.708;2022-07-24T17:44:28;15.75;;;14.35;;
46339;SDS011;47273;49.274;8.708;2022-07-24T17:46:54;15.88;;;14.40;;
46339;SDS011;47273;49.274;8.708;2022-07-24T17:49:22;15.98;;;14.57;;
46339;SDS011;47273;49.274;8.708;2022-07-24T17:51:48;16.95;;;15.30;;
46339;SDS011;47273;49.274;8.708;2022-07-24T17:54:14;17.08;;;15.57;;
46339;SDS011;47273;49.274;8.708;2022-07-24T17:56:40;15.65;;;14.25;;
46339;SDS011;47273;49.274;8.708;2022-07-24T17:59:05;16.48;;;14.95;;
46339;SDS011;47273;49.274;8.708;2022-07-24T18:01:34;15.77;;;14.45;;
46339;SDS011;47273;49.274;8.708;2022-07-24T18:03:59;19.30;;;17.45;;
46339;SDS011;47273;49.274;8.708;2022-07-24T18:06:25;17.08;;;15.27;;
46339;SDS011;47273;49.274;8.708;2022-07-24T18:08:51;16.13;;;14.63;;
46339;SDS011;47273;49.274;8.708;2022-07-24T18:11:17;16.98;;;15.38;;
46339;SDS011;47273;49.274;8.708;2022-07-24T18:13:42;196.60;;;181.00;;
46339;SDS011;47273;49.274;8.708;2022-07-24T18:16:08;406.88;;;373.92;;
46339;SDS011;47273;49.274;8.708;2022-07-24T18:18:35;178.93;;;163.60;;
46339;SDS011;47273;49.274;8.708;2022-07-24T18:21:03;583.00;;;527.55;;
46339;SDS011;47273;49.274;8.708;2022-07-24T18:23:29;718.13;;;487.92;;
46339;SDS011;47273;49.274;8.708;2022-07-24T18:25:55;619.65;;;440.23;;
46339;SDS011;47273;49.274;8.708;2022-07-24T18:28:23;262.83;;;198.63;;
46339;SDS011;47273;49.274;8.708;2022-07-24T18:30:49;78.05;;;62.95;;
46339;SDS011;47273;49.274;8.708;2022-07-24T18:33:15;37.03;;;25.88;;
46339;SDS011;47273;49.274;8.708;2022-07-24T18:35:41;18.45;;;16.67;;
46339;SDS011;47273;49.274;8.708;2022-07-24T18:38:07;18.67;;;16.70;;
46339;SDS011;47273;49.274;8.708;2022-07-24T18:40:34;17.58;;;15.98;;
46339;SDS011;47273;49.274;8.708;2022-07-24T18:43:02;16.63;;;15.13;;
46339;SDS011;47273;49.274;8.708;2022-07-24T18:45:31;15.75;;;14.40;;
46339;SDS011;47273;49.274;8.708;2022-07-24T18:57:12;16.30;;;14.75;;
46339;SDS011;47273;49.274;8.708;2022-07-24T18:59:38;16.00;;;14.60;;
46339;SDS011;47273;49.274;8.708;2022-07-24T19:02:04;16.05;;;14.45;;
46339;SDS011;47273;49.274;8.708;2022-07-24T19:04:30;15.82;;;14.30;;
46339;SDS011;47273;49.274;8.708;2022-07-24T19:06:55;14.57;;;13.27;;
46339;SDS011;47273;49.274;8.708;2022-07-24T19:09:21;15.50;;;14.10;;
46339;SDS011;47273;49.274;8.708;2022-07-24T19:16:07;15.50;;;13.95;;
46339;SDS011;47273;49.274;8.708;2022-07-24T19:18:35;15.43;;;13.98;;
46339;SDS011;47273;49.274;8.708;2022-07-24T19:21:05;16.17;;;14.43;;
46339;SDS011;47273;49.274;8.708;2022-07-24T19:23:32;15.95;;;14.45;;
46339;SDS011;47273;49.274;8.708;2022-07-24T19:25:58;17.95;;;14.32;;
46339;SDS011;47273;49.274;8.708;2022-07-24T19:28:45;16.35;;;14.75;;
46339;SDS011;47273;49.274;8.708;2022-07-24T19:31:11;17.73;;;14.13;;
46339;SDS011;47273;49.274;8.708;2022-07-24T19:33:37;16.08;;;14.20;;
46339;SDS011;47273;49.274;8.708;2022-07-24T19:36:03;15.43;;;13.93;;
46339;SDS011;47273;49.274;8.708;2022-07-24T19:38:29;15.93;;;14.32;;
46339;SDS011;47273;49.274;8.708;2022-07-24T19:40:54;15.43;;;13.95;;
46339;SDS011;47273;49.274;8.708;2022-07-24T19:43:23;15.45;;;13.95;;
46339;SDS011;47273;49.274;8.708;2022-07-24T19:45:48;15.55;;;14.05;;
46339;SDS011;47273;49.274;8.708;2022-07-24T19:48:14;15.55;;;14.13;;
46339;SDS011;47273;49.274;8.708;2022-07-24T19:50:40;16.85;;;14.98;;
46339;SDS011;47273;49.274;8.708;2022-07-24T19:53:09;18.25;;;15.18;;
46339;SDS011;47273;49.274;8.708;2022-07-24T19:55:43;15.80;;;14.15;;
46339;SDS011;47273;49.274;8.708;2022-07-24T19:58:09;16.33;;;14.02;;
46339;SDS011;47273;49.274;8.708;2022-07-24T20:00:34;18.35;;;15.30;;
46339;SDS011;47273;49.274;8.708;2022-07-24T20:03:00;17.30;;;15.60;;
46339;SDS011;47273;49.274;8.708;2022-07-24T20:05:26;17.08;;;14.98;;
46339;SDS011;47273;49.274;8.708;2022-07-24T20:10:54;17.33;;;15.52;;
46339;SDS011;47273;49.274;8.708;2022-07-24T20:13:21;17.80;;;15.45;;
46339;SDS011;47273;49.274;8.708;2022-07-24T20:15:47;17.55;;;15.75;;
46339;SDS011;47273;49.274;8.708;2022-07-24T20:18:13;17.20;;;15.60;;
46339;SDS011;47273;49.274;8.708;2022-07-24T20:20:38;16.50;;;14.88;;
46339;SDS011;47273;49.274;8.708;2022-07-24T20:23:05;16.85;;;15.35;;
46339;SDS011;47273;49.274;8.708;2022-07-24T20:25:31;17.65;;;15.25;;
46339;SDS011;47273;49.274;8.708;2022-07-24T20:27:57;25.60;;;23.00;;
46339;SDS011;47273;49.274;8.708;2022-07-24T20:30:23;25.95;;;23.15;;
46339;SDS011;47273;49.274;8.708;2022-07-24T20:32:49;52.90;;;44.72;;